sensor_id;sensor_type;location;lat;lon;timestamp;P1;P2;P0
31330;PMS5003;34067;39.548;-76.088;2022-09-09T00:02:20;7;6;
31330;PMS5003;34067;39.548;-76.088;2022-09-09T00:04:52;5;5;
31330;PMS5003;34067;39.548;-76.088;2022-09-09T00:07:28;7;6;
31330;PMS5003;34067;39.548;-76.088;2022-09-09T00:10:13;7;7;
31330;PMS5003;34067;39.548;-76.088;2022-09-09T00:12:48;8;8;
31330;PMS5003;34067;39.548;-76.088;2022-09-09T00:15:26;9;9;
31330;PMS5003;34067;39.548;-76.088;2022-09-09T00:18:00;8;8;
31330;PMS5003;34067;39.548;-76.088;2022-09-09T00:20:42;8;7;
31330;PMS5003;34067;39.548;-76.088;2022-09-09T00:23:19;8;8;
31330;PMS5003;34067;39.548;-76.088;2022-09-09T00:25:55;7;7;
31330;PMS5003;34067;39.548;-76.088;2022-09-09T00:28:30;8;8;
31330;PMS5003;34067;39.548;-76.088;2022-09-09T00:31:09;7;7;
31330;PMS5003;34067;39.548;-76.088;2022-09-09T00:33:39;9;9;
31330;PMS5003;34067;39.548;-76.088;2022-09-09T00:36:11;11;11;
31330;PMS5003;34067;39.548;-76.088;2022-09-09T00:38:42;7;7;
31330;PMS5003;34067;39.548;-76.088;2022-09-09T00:41:14;7;7;
31330;PMS5003;34067;39.548;-76.088;2022-09-09T00:43:52;8;7;
31330;PMS5003;34067;39.548;-76.088;2022-09-09T00:47:00;8;8;
31330;PMS5003;34067;39.548;-76.088;2022-09-09T00:49:42;7;7;
31330;PMS5003;34067;39.548;-76.088;2022-09-09T00:52:21;9;8;
31330;PMS5003;34067;39.548;-76.088;2022-09-09T00:55:00;7;7;
31330;PMS5003;34067;39.548;-76.088;2022-09-09T00:57:33;8;8;
31330;PMS5003;34067;39.548;-76.088;2022-09-09T01:00:17;9;8;
31330;PMS5003;34067;39.548;-76.088;2022-09-09T01:02:52;7;7;
31330;PMS5003;34067;39.548;-76.088;2022-09-09T01:05:33;8;8;
31330;PMS5003;34067;39.548;-76.088;2022-09-09T01:08:09;8;8;
31330;PMS5003;34067;39.548;-76.088;2022-09-09T01:10:49;5;5;
31330;PMS5003;34067;39.548;-76.088;2022-09-09T01:13:24;9;9;
31330;PMS5003;34067;39.548;-76.088;2022-09-09T01:15:55;6;6;
31330;PMS5003;34067;39.548;-76.088;2022-09-09T01:18:26;7;7;
31330;PMS5003;34067;39.548;-76.088;2022-09-09T01:21:01;9;9;
31330;PMS5003;34067;39.548;-76.088;2022-09-09T01:23:42;9;8;
31330;PMS5003;34067;39.548;-76.088;2022-09-09T01:26:25;9;8;
31330;PMS5003;34067;39.548;-76.088;2022-09-09T01:28:57;7;7;
31330;PMS5003;34067;39.548;-76.088;2022-09-09T01:31:27;7;7;
31330;PMS5003;34067;39.548;-76.088;2022-09-09T01:33:57;8;7;
31330;PMS5003;34067;39.548;-76.088;2022-09-09T01:36:28;8;8;
31330;PMS5003;34067;39.548;-76.088;2022-09-09T01:39:02;10;10;
31330;PMS5003;34067;39.548;-76.088;2022-09-09T01:41:30;13;12;
31330;PMS5003;34067;39.548;-76.088;2022-09-09T01:43:58;13;13;
31330;PMS5003;34067;39.548;-76.088;2022-09-09T01:46:26;11;11;
31330;PMS5003;34067;39.548;-76.088;2022-09-09T01:48:55;9;9;
31330;PMS5003;34067;39.548;-76.088;2022-09-09T01:51:26;13;12;
31330;PMS5003;34067;39.548;-76.088;2022-09-09T01:53:54;12;12;
31330;PMS5003;34067;39.548;-76.088;2022-09-09T01:56:26;13;11;
31330;PMS5003;34067;39.548;-76.088;2022-09-09T01:59:07;13;12;
31330;PMS5003;34067;39.548;-76.088;2022-09-09T02:01:48;13;13;
31330;PMS5003;34067;39.548;-76.088;2022-09-09T02:04:30;10;10;
31330;PMS5003;34067;39.548;-76.088;2022-09-09T02:07:07;19;19;
31330;PMS5003;34067;39.548;-76.088;2022-09-09T02:09:45;20;20;
31330;PMS5003;34067;39.548;-76.088;2022-09-09T02:12:18;12;12;
31330;PMS5003;34067;39.548;-76.088;2022-09-09T02:14:52;12;12;
31330;PMS5003;34067;39.548;-76.088;2022-09-09T02:17:26;10;9;
31330;PMS5003;34067;39.548;-76.088;2022-09-09T02:19:59;8;8;
31330;PMS5003;34067;39.548;-76.088;2022-09-09T02:22:34;10;9;
31330;PMS5003;34067;39.548;-76.088;2022-09-09T02:25:05;7;7;
31330;PMS5003;34067;39.548;-76.088;2022-09-09T02:27:37;9;9;
31330;PMS5003;34067;39.548;-76.088;2022-09-09T02:30:07;8;7;
31330;PMS5003;34067;39.548;-76.088;2022-09-09T02:32:36;6;6;
31330;PMS5003;34067;39.548;-76.088;2022-09-09T02:35:08;7;7;
31330;PMS5003;34067;39.548;-76.088;2022-09-09T02:37:39;9;8;
31330;PMS5003;34067;39.548;-76.088;2022-09-09T02:40:10;6;6;
31330;PMS5003;34067;39.548;-76.088;2022-09-09T02:42:39;8;7;
31330;PMS5003;34067;39.548;-76.088;2022-09-09T02:45:09;10;9;
31330;PMS5003;34067;39.548;-76.088;2022-09-09T02:47:39;8;8;
31330;PMS5003;34067;39.548;-76.088;2022-09-09T02:50:15;11;11;
31330;PMS5003;34067;39.548;-76.088;2022-09-09T02:52:50;10;9;
31330;PMS5003;34067;39.548;-76.088;2022-09-09T02:55:29;8;8;
31330;PMS5003;34067;39.548;-76.088;2022-09-09T02:58:08;7;7;
31330;PMS5003;34067;39.548;-76.088;2022-09-09T03:00:39;6;6;
31330;PMS5003;34067;39.548;-76.088;2022-09-09T03:03:07;6;6;
31330;PMS5003;34067;39.548;-76.088;2022-09-09T03:05:35;8;8;
31330;PMS5003;34067;39.548;-76.088;2022-09-09T03:08:03;7;7;
31330;PMS5003;34067;39.548;-76.088;2022-09-09T03:10:31;7;7;
31330;PMS5003;34067;39.548;-76.088;2022-09-09T03:13:00;8;8;
31330;PMS5003;34067;39.548;-76.088;2022-09-09T03:15:28;8;8;
31330;PMS5003;34067;39.548;-76.088;2022-09-09T03:17:56;8;8;
31330;PMS5003;34067;39.548;-76.088;2022-09-09T03:20:24;7;7;
31330;PMS5003;34067;39.548;-76.088;2022-09-09T03:22:53;7;6;
31330;PMS5003;34067;39.548;-76.088;2022-09-09T03:25:22;8;8;
31330;PMS5003;34067;39.548;-76.088;2022-09-09T03:27:51;10;9;
31330;PMS5003;34067;39.548;-76.088;2022-09-09T03:30:19;9;8;
31330;PMS5003;34067;39.548;-76.088;2022-09-09T03:32:48;10;9;
31330;PMS5003;34067;39.548;-76.088;2022-09-09T03:35:16;9;9;
31330;PMS5003;34067;39.548;-76.088;2022-09-09T03:37:44;8;8;
31330;PMS5003;34067;39.548;-76.088;2022-09-09T03:40:12;7;7;
31330;PMS5003;34067;39.548;-76.088;2022-09-09T03:42:41;9;8;
31330;PMS5003;34067;39.548;-76.088;2022-09-09T03:45:09;10;9;
31330;PMS5003;34067;39.548;-76.088;2022-09-09T03:47:37;8;8;
31330;PMS5003;34067;39.548;-76.088;2022-09-09T03:50:06;10;10;
31330;PMS5003;34067;39.548;-76.088;2022-09-09T03:52:35;9;9;
31330;PMS5003;34067;39.548;-76.088;2022-09-09T03:55:04;8;7;
31330;PMS5003;34067;39.548;-76.088;2022-09-09T03:57:33;9;8;
31330;PMS5003;34067;39.548;-76.088;2022-09-09T04:00:02;10;9;
31330;PMS5003;34067;39.548;-76.088;2022-09-09T04:02:31;10;9;
31330;PMS5003;34067;39.548;-76.088;2022-09-09T04:04:59;8;7;
31330;PMS5003;34067;39.548;-76.088;2022-09-09T04:07:27;9;9;
31330;PMS5003;34067;39.548;-76.088;2022-09-09T04:09:54;8;8;
31330;PMS5003;34067;39.548;-76.088;2022-09-09T04:12:22;10;9;
31330;PMS5003;34067;39.548;-76.088;2022-09-09T04:14:50;11;10;
31330;PMS5003;34067;39.548;-76.088;2022-09-09T04:17:18;10;10;
31330;PMS5003;34067;39.548;-76.088;2022-09-09T04:19:46;9;8;
31330;PMS5003;34067;39.548;-76.088;2022-09-09T04:22:13;11;11;
31330;PMS5003;34067;39.548;-76.088;2022-09-09T04:24:41;13;12;
31330;PMS5003;34067;39.548;-76.088;2022-09-09T04:27:09;9;9;
31330;PMS5003;34067;39.548;-76.088;2022-09-09T04:29:37;11;11;
31330;PMS5003;34067;39.548;-76.088;2022-09-09T04:32:05;10;10;
31330;PMS5003;34067;39.548;-76.088;2022-09-09T04:34:33;10;9;
31330;PMS5003;34067;39.548;-76.088;2022-09-09T04:37:01;8;8;
31330;PMS5003;34067;39.548;-76.088;2022-09-09T04:39:30;11;11;
31330;PMS5003;34067;39.548;-76.088;2022-09-09T04:41:58;8;8;
31330;PMS5003;34067;39.548;-76.088;2022-09-09T04:44:25;9;8;
31330;PMS5003;34067;39.548;-76.088;2022-09-09T04:46:53;9;9;
31330;PMS5003;34067;39.548;-76.088;2022-09-09T04:49:21;9;8;
31330;PMS5003;34067;39.548;-76.088;2022-09-09T04:51:49;11;11;
31330;PMS5003;34067;39.548;-76.088;2022-09-09T04:54:18;11;10;
31330;PMS5003;34067;39.548;-76.088;2022-09-09T04:56:45;10;10;
31330;PMS5003;34067;39.548;-76.088;2022-09-09T04:59:13;11;11;
31330;PMS5003;34067;39.548;-76.088;2022-09-09T05:03:09;13;12;
31330;PMS5003;34067;39.548;-76.088;2022-09-09T05:05:37;10;10;
31330;PMS5003;34067;39.548;-76.088;2022-09-09T05:08:06;11;9;
31330;PMS5003;34067;39.548;-76.088;2022-09-09T05:10:37;11;11;
31330;PMS5003;34067;39.548;-76.088;2022-09-09T05:13:05;9;9;
31330;PMS5003;34067;39.548;-76.088;2022-09-09T05:15:33;10;10;
31330;PMS5003;34067;39.548;-76.088;2022-09-09T05:18:01;11;11;
31330;PMS5003;34067;39.548;-76.088;2022-09-09T05:20:29;14;14;
31330;PMS5003;34067;39.548;-76.088;2022-09-09T05:22:57;10;10;
31330;PMS5003;34067;39.548;-76.088;2022-09-09T05:25:25;14;12;
31330;PMS5003;34067;39.548;-76.088;2022-09-09T05:27:53;9;9;
31330;PMS5003;34067;39.548;-76.088;2022-09-09T05:30:21;12;12;
31330;PMS5003;34067;39.548;-76.088;2022-09-09T05:32:49;11;11;
31330;PMS5003;34067;39.548;-76.088;2022-09-09T05:35:17;15;14;
31330;PMS5003;34067;39.548;-76.088;2022-09-09T05:37:44;14;14;
31330;PMS5003;34067;39.548;-76.088;2022-09-09T05:40:12;10;10;
31330;PMS5003;34067;39.548;-76.088;2022-09-09T05:42:40;15;15;
31330;PMS5003;34067;39.548;-76.088;2022-09-09T05:45:08;10;9;
31330;PMS5003;34067;39.548;-76.088;2022-09-09T05:47:37;14;13;
31330;PMS5003;34067;39.548;-76.088;2022-09-09T05:50:05;13;11;
31330;PMS5003;34067;39.548;-76.088;2022-09-09T05:52:34;11;11;
31330;PMS5003;34067;39.548;-76.088;2022-09-09T05:55:03;13;13;
31330;PMS5003;34067;39.548;-76.088;2022-09-09T05:57:31;12;12;
31330;PMS5003;34067;39.548;-76.088;2022-09-09T05:59:59;12;10;
31330;PMS5003;34067;39.548;-76.088;2022-09-09T06:02:28;12;12;
31330;PMS5003;34067;39.548;-76.088;2022-09-09T06:04:55;10;10;
31330;PMS5003;34067;39.548;-76.088;2022-09-09T06:07:23;10;10;
31330;PMS5003;34067;39.548;-76.088;2022-09-09T06:09:51;12;11;
31330;PMS5003;34067;39.548;-76.088;2022-09-09T06:12:19;11;11;
31330;PMS5003;34067;39.548;-76.088;2022-09-09T06:14:47;12;12;
31330;PMS5003;34067;39.548;-76.088;2022-09-09T06:17:14;13;12;
31330;PMS5003;34067;39.548;-76.088;2022-09-09T06:19:42;10;10;
31330;PMS5003;34067;39.548;-76.088;2022-09-09T06:22:10;12;12;
31330;PMS5003;34067;39.548;-76.088;2022-09-09T06:24:38;12;11;
31330;PMS5003;34067;39.548;-76.088;2022-09-09T06:27:06;9;9;
31330;PMS5003;34067;39.548;-76.088;2022-09-09T06:29:34;12;12;
31330;PMS5003;34067;39.548;-76.088;2022-09-09T06:32:02;11;11;
31330;PMS5003;34067;39.548;-76.088;2022-09-09T06:34:30;12;11;
31330;PMS5003;34067;39.548;-76.088;2022-09-09T06:36:58;10;10;
31330;PMS5003;34067;39.548;-76.088;2022-09-09T06:39:26;12;12;
31330;PMS5003;34067;39.548;-76.088;2022-09-09T06:41:54;12;11;
31330;PMS5003;34067;39.548;-76.088;2022-09-09T06:44:22;11;11;
31330;PMS5003;34067;39.548;-76.088;2022-09-09T06:46:50;13;13;
31330;PMS5003;34067;39.548;-76.088;2022-09-09T06:49:18;11;11;
31330;PMS5003;34067;39.548;-76.088;2022-09-09T06:51:46;14;13;
31330;PMS5003;34067;39.548;-76.088;2022-09-09T06:54:15;13;12;
31330;PMS5003;34067;39.548;-76.088;2022-09-09T06:56:42;12;12;
31330;PMS5003;34067;39.548;-76.088;2022-09-09T06:59:10;12;11;
31330;PMS5003;34067;39.548;-76.088;2022-09-09T07:01:38;12;11;
31330;PMS5003;34067;39.548;-76.088;2022-09-09T07:04:08;12;12;
31330;PMS5003;34067;39.548;-76.088;2022-09-09T07:06:37;12;12;
31330;PMS5003;34067;39.548;-76.088;2022-09-09T07:09:06;14;13;
31330;PMS5003;34067;39.548;-76.088;2022-09-09T07:11:37;11;11;
31330;PMS5003;34067;39.548;-76.088;2022-09-09T07:14:06;14;13;
31330;PMS5003;34067;39.548;-76.088;2022-09-09T07:16:35;11;11;
31330;PMS5003;34067;39.548;-76.088;2022-09-09T07:19:03;10;10;
31330;PMS5003;34067;39.548;-76.088;2022-09-09T07:21:31;11;11;
31330;PMS5003;34067;39.548;-76.088;2022-09-09T07:23:59;9;9;
31330;PMS5003;34067;39.548;-76.088;2022-09-09T07:26:27;12;12;
31330;PMS5003;34067;39.548;-76.088;2022-09-09T07:28:57;11;10;
31330;PMS5003;34067;39.548;-76.088;2022-09-09T07:31:25;12;12;
31330;PMS5003;34067;39.548;-76.088;2022-09-09T07:33:54;9;9;
31330;PMS5003;34067;39.548;-76.088;2022-09-09T07:36:23;12;11;
31330;PMS5003;34067;39.548;-76.088;2022-09-09T07:38:53;11;11;
31330;PMS5003;34067;39.548;-76.088;2022-09-09T07:41:23;13;12;
31330;PMS5003;34067;39.548;-76.088;2022-09-09T07:43:52;12;12;
31330;PMS5003;34067;39.548;-76.088;2022-09-09T07:46:21;13;13;
31330;PMS5003;34067;39.548;-76.088;2022-09-09T07:48:51;11;10;
31330;PMS5003;34067;39.548;-76.088;2022-09-09T07:51:21;12;12;
31330;PMS5003;34067;39.548;-76.088;2022-09-09T07:53:52;11;10;
31330;PMS5003;34067;39.548;-76.088;2022-09-09T07:56:21;13;12;
31330;PMS5003;34067;39.548;-76.088;2022-09-09T07:58:50;14;12;
31330;PMS5003;34067;39.548;-76.088;2022-09-09T08:01:20;11;11;
31330;PMS5003;34067;39.548;-76.088;2022-09-09T08:03:53;10;10;
31330;PMS5003;34067;39.548;-76.088;2022-09-09T08:06:23;11;11;
31330;PMS5003;34067;39.548;-76.088;2022-09-09T08:08:51;11;11;
31330;PMS5003;34067;39.548;-76.088;2022-09-09T08:11:19;14;13;
31330;PMS5003;34067;39.548;-76.088;2022-09-09T08:13:48;9;9;
31330;PMS5003;34067;39.548;-76.088;2022-09-09T08:16:19;11;11;
31330;PMS5003;34067;39.548;-76.088;2022-09-09T08:18:53;12;11;
31330;PMS5003;34067;39.548;-76.088;2022-09-09T08:21:22;13;12;
31330;PMS5003;34067;39.548;-76.088;2022-09-09T08:23:52;16;14;
31330;PMS5003;34067;39.548;-76.088;2022-09-09T08:26:22;13;13;
31330;PMS5003;34067;39.548;-76.088;2022-09-09T08:28:52;14;14;
31330;PMS5003;34067;39.548;-76.088;2022-09-09T08:31:23;13;12;
31330;PMS5003;34067;39.548;-76.088;2022-09-09T08:33:52;13;12;
31330;PMS5003;34067;39.548;-76.088;2022-09-09T08:36:21;16;16;
31330;PMS5003;34067;39.548;-76.088;2022-09-09T08:38:51;14;14;
31330;PMS5003;34067;39.548;-76.088;2022-09-09T08:41:26;14;14;
31330;PMS5003;34067;39.548;-76.088;2022-09-09T08:44:07;12;12;
31330;PMS5003;34067;39.548;-76.088;2022-09-09T08:46:42;11;11;
31330;PMS5003;34067;39.548;-76.088;2022-09-09T08:49:21;16;13;
31330;PMS5003;34067;39.548;-76.088;2022-09-09T08:52:07;13;13;
31330;PMS5003;34067;39.548;-76.088;2022-09-09T08:54:42;13;12;
31330;PMS5003;34067;39.548;-76.088;2022-09-09T08:57:12;12;12;
31330;PMS5003;34067;39.548;-76.088;2022-09-09T08:59:43;15;15;
31330;PMS5003;34067;39.548;-76.088;2022-09-09T09:02:14;15;15;
31330;PMS5003;34067;39.548;-76.088;2022-09-09T09:04:52;13;13;
31330;PMS5003;34067;39.548;-76.088;2022-09-09T09:07:33;14;14;
31330;PMS5003;34067;39.548;-76.088;2022-09-09T09:10:16;13;11;
31330;PMS5003;34067;39.548;-76.088;2022-09-09T09:12:58;13;12;
31330;PMS5003;34067;39.548;-76.088;2022-09-09T09:15:28;15;14;
31330;PMS5003;34067;39.548;-76.088;2022-09-09T09:18:02;11;11;
31330;PMS5003;34067;39.548;-76.088;2022-09-09T09:20:32;12;12;
31330;PMS5003;34067;39.548;-76.088;2022-09-09T09:23:09;14;14;
31330;PMS5003;34067;39.548;-76.088;2022-09-09T09:25:47;11;11;
31330;PMS5003;34067;39.548;-76.088;2022-09-09T09:28:16;12;12;
31330;PMS5003;34067;39.548;-76.088;2022-09-09T09:30:47;11;11;
31330;PMS5003;34067;39.548;-76.088;2022-09-09T09:33:20;12;12;
31330;PMS5003;34067;39.548;-76.088;2022-09-09T09:35:54;13;12;
31330;PMS5003;34067;39.548;-76.088;2022-09-09T09:38:23;15;14;
31330;PMS5003;34067;39.548;-76.088;2022-09-09T09:40:52;13;13;
31330;PMS5003;34067;39.548;-76.088;2022-09-09T09:43:23;10;10;
31330;PMS5003;34067;39.548;-76.088;2022-09-09T09:45:53;15;13;
31330;PMS5003;34067;39.548;-76.088;2022-09-09T09:48:21;15;14;
31330;PMS5003;34067;39.548;-76.088;2022-09-09T09:50:49;13;13;
31330;PMS5003;34067;39.548;-76.088;2022-09-09T09:53:21;12;12;
31330;PMS5003;34067;39.548;-76.088;2022-09-09T09:55:53;12;11;
31330;PMS5003;34067;39.548;-76.088;2022-09-09T09:58:25;12;12;
31330;PMS5003;34067;39.548;-76.088;2022-09-09T10:00:56;13;11;
31330;PMS5003;34067;39.548;-76.088;2022-09-09T10:03:26;14;14;
31330;PMS5003;34067;39.548;-76.088;2022-09-09T10:05:55;12;12;
31330;PMS5003;34067;39.548;-76.088;2022-09-09T10:08:23;14;13;
31330;PMS5003;34067;39.548;-76.088;2022-09-09T10:10:56;14;13;
31330;PMS5003;34067;39.548;-76.088;2022-09-09T10:13:34;13;12;
31330;PMS5003;34067;39.548;-76.088;2022-09-09T10:16:16;14;13;
31330;PMS5003;34067;39.548;-76.088;2022-09-09T10:18:57;15;14;
31330;PMS5003;34067;39.548;-76.088;2022-09-09T10:21:32;13;13;
31330;PMS5003;34067;39.548;-76.088;2022-09-09T10:24:23;14;14;
31330;PMS5003;34067;39.548;-76.088;2022-09-09T10:27:05;13;13;
31330;PMS5003;34067;39.548;-76.088;2022-09-09T10:29:49;12;12;
31330;PMS5003;34067;39.548;-76.088;2022-09-09T10:32:36;15;14;
31330;PMS5003;34067;39.548;-76.088;2022-09-09T10:35:12;12;12;
31330;PMS5003;34067;39.548;-76.088;2022-09-09T10:38:24;14;13;
31330;PMS5003;34067;39.548;-76.088;2022-09-09T10:41:19;13;13;
31330;PMS5003;34067;39.548;-76.088;2022-09-09T10:44:00;15;13;
31330;PMS5003;34067;39.548;-76.088;2022-09-09T10:47:16;11;11;
31330;PMS5003;34067;39.548;-76.088;2022-09-09T10:50:18;13;12;
31330;PMS5003;34067;39.548;-76.088;2022-09-09T10:52:58;12;11;
31330;PMS5003;34067;39.548;-76.088;2022-09-09T10:55:37;14;13;
31330;PMS5003;34067;39.548;-76.088;2022-09-09T10:58:10;13;13;
31330;PMS5003;34067;39.548;-76.088;2022-09-09T11:00:46;13;13;
31330;PMS5003;34067;39.548;-76.088;2022-09-09T11:03:19;14;13;
31330;PMS5003;34067;39.548;-76.088;2022-09-09T11:05:51;10;10;
31330;PMS5003;34067;39.548;-76.088;2022-09-09T11:08:24;12;12;
31330;PMS5003;34067;39.548;-76.088;2022-09-09T11:10:55;14;13;
31330;PMS5003;34067;39.548;-76.088;2022-09-09T11:13:31;16;14;
31330;PMS5003;34067;39.548;-76.088;2022-09-09T11:16:11;14;14;
31330;PMS5003;34067;39.548;-76.088;2022-09-09T11:18:48;19;17;
31330;PMS5003;34067;39.548;-76.088;2022-09-09T11:21:17;14;14;
31330;PMS5003;34067;39.548;-76.088;2022-09-09T11:23:51;16;14;
31330;PMS5003;34067;39.548;-76.088;2022-09-09T11:26:28;11;11;
31330;PMS5003;34067;39.548;-76.088;2022-09-09T11:29:07;13;13;
31330;PMS5003;34067;39.548;-76.088;2022-09-09T11:31:54;16;16;
31330;PMS5003;34067;39.548;-76.088;2022-09-09T11:34:39;13;13;
31330;PMS5003;34067;39.548;-76.088;2022-09-09T11:37:32;18;18;
31330;PMS5003;34067;39.548;-76.088;2022-09-09T11:40:15;15;14;
31330;PMS5003;34067;39.548;-76.088;2022-09-09T11:42:48;17;16;
31330;PMS5003;34067;39.548;-76.088;2022-09-09T11:45:28;13;13;
31330;PMS5003;34067;39.548;-76.088;2022-09-09T11:47:58;14;14;
31330;PMS5003;34067;39.548;-76.088;2022-09-09T11:50:29;13;13;
31330;PMS5003;34067;39.548;-76.088;2022-09-09T11:53:31;17;17;
31330;PMS5003;34067;39.548;-76.088;2022-09-09T11:56:01;14;14;
31330;PMS5003;34067;39.548;-76.088;2022-09-09T11:58:33;16;14;
31330;PMS5003;34067;39.548;-76.088;2022-09-09T12:01:13;17;15;
31330;PMS5003;34067;39.548;-76.088;2022-09-09T12:03:44;12;12;
31330;PMS5003;34067;39.548;-76.088;2022-09-09T12:06:16;14;12;
31330;PMS5003;34067;39.548;-76.088;2022-09-09T12:08:48;15;15;
31330;PMS5003;34067;39.548;-76.088;2022-09-09T12:11:25;19;16;
31330;PMS5003;34067;39.548;-76.088;2022-09-09T12:13:56;16;14;
31330;PMS5003;34067;39.548;-76.088;2022-09-09T12:16:28;13;13;
31330;PMS5003;34067;39.548;-76.088;2022-09-09T12:19:06;13;12;
31330;PMS5003;34067;39.548;-76.088;2022-09-09T12:21:44;12;12;
31330;PMS5003;34067;39.548;-76.088;2022-09-09T12:24:19;11;10;
31330;PMS5003;34067;39.548;-76.088;2022-09-09T12:26:58;15;14;
31330;PMS5003;34067;39.548;-76.088;2022-09-09T12:29:36;13;13;
31330;PMS5003;34067;39.548;-76.088;2022-09-09T12:32:11;13;12;
31330;PMS5003;34067;39.548;-76.088;2022-09-09T12:34:42;11;11;
31330;PMS5003;34067;39.548;-76.088;2022-09-09T12:37:15;13;12;
31330;PMS5003;34067;39.548;-76.088;2022-09-09T12:39:55;10;10;
31330;PMS5003;34067;39.548;-76.088;2022-09-09T12:42:25;13;12;
31330;PMS5003;34067;39.548;-76.088;2022-09-09T12:44:54;9;9;
31330;PMS5003;34067;39.548;-76.088;2022-09-09T12:47:25;10;10;
31330;PMS5003;34067;39.548;-76.088;2022-09-09T12:49:58;10;10;
31330;PMS5003;34067;39.548;-76.088;2022-09-09T12:52:28;9;9;
31330;PMS5003;34067;39.548;-76.088;2022-09-09T12:54:59;11;11;
31330;PMS5003;34067;39.548;-76.088;2022-09-09T12:57:31;11;10;
31330;PMS5003;34067;39.548;-76.088;2022-09-09T13:00:05;10;10;
31330;PMS5003;34067;39.548;-76.088;2022-09-09T13:02:45;9;9;
31330;PMS5003;34067;39.548;-76.088;2022-09-09T13:05:15;9;9;
31330;PMS5003;34067;39.548;-76.088;2022-09-09T13:07:45;11;11;
31330;PMS5003;34067;39.548;-76.088;2022-09-09T13:10:14;9;9;
31330;PMS5003;34067;39.548;-76.088;2022-09-09T13:12:48;10;10;
31330;PMS5003;34067;39.548;-76.088;2022-09-09T13:15:19;10;9;
31330;PMS5003;34067;39.548;-76.088;2022-09-09T13:17:53;10;9;
31330;PMS5003;34067;39.548;-76.088;2022-09-09T13:20:24;6;6;
31330;PMS5003;34067;39.548;-76.088;2022-09-09T13:22:54;8;8;
31330;PMS5003;34067;39.548;-76.088;2022-09-09T13:25:23;7;7;
31330;PMS5003;34067;39.548;-76.088;2022-09-09T13:27:53;6;6;
31330;PMS5003;34067;39.548;-76.088;2022-09-09T13:30:24;9;9;
31330;PMS5003;34067;39.548;-76.088;2022-09-09T13:33:03;8;8;
31330;PMS5003;34067;39.548;-76.088;2022-09-09T13:35:34;7;7;
31330;PMS5003;34067;39.548;-76.088;2022-09-09T13:38:12;7;7;
31330;PMS5003;34067;39.548;-76.088;2022-09-09T13:40:41;9;9;
31330;PMS5003;34067;39.548;-76.088;2022-09-09T13:43:22;6;6;
31330;PMS5003;34067;39.548;-76.088;2022-09-09T13:45:53;7;7;
31330;PMS5003;34067;39.548;-76.088;2022-09-09T13:48:22;6;6;
31330;PMS5003;34067;39.548;-76.088;2022-09-09T13:50:55;7;6;
31330;PMS5003;34067;39.548;-76.088;2022-09-09T13:53:25;8;8;
31330;PMS5003;34067;39.548;-76.088;2022-09-09T13:55:53;5;5;
31330;PMS5003;34067;39.548;-76.088;2022-09-09T13:58:21;6;6;
31330;PMS5003;34067;39.548;-76.088;2022-09-09T14:00:49;9;9;
31330;PMS5003;34067;39.548;-76.088;2022-09-09T14:03:18;7;7;
31330;PMS5003;34067;39.548;-76.088;2022-09-09T14:05:47;6;6;
31330;PMS5003;34067;39.548;-76.088;2022-09-09T14:08:19;7;7;
31330;PMS5003;34067;39.548;-76.088;2022-09-09T14:10:50;8;8;
31330;PMS5003;34067;39.548;-76.088;2022-09-09T14:13:19;11;10;
31330;PMS5003;34067;39.548;-76.088;2022-09-09T14:15:48;7;7;
31330;PMS5003;34067;39.548;-76.088;2022-09-09T14:18:15;7;7;
31330;PMS5003;34067;39.548;-76.088;2022-09-09T14:20:43;5;5;
31330;PMS5003;34067;39.548;-76.088;2022-09-09T14:23:11;7;7;
31330;PMS5003;34067;39.548;-76.088;2022-09-09T14:25:40;5;5;
31330;PMS5003;34067;39.548;-76.088;2022-09-09T14:28:10;7;7;
31330;PMS5003;34067;39.548;-76.088;2022-09-09T14:30:40;7;7;
31330;PMS5003;34067;39.548;-76.088;2022-09-09T14:33:09;5;5;
31330;PMS5003;34067;39.548;-76.088;2022-09-09T14:35:40;6;6;
31330;PMS5003;34067;39.548;-76.088;2022-09-09T14:38:08;6;6;
31330;PMS5003;34067;39.548;-76.088;2022-09-09T14:40:36;6;6;
31330;PMS5003;34067;39.548;-76.088;2022-09-09T14:43:05;7;7;
31330;PMS5003;34067;39.548;-76.088;2022-09-09T14:45:35;9;9;
31330;PMS5003;34067;39.548;-76.088;2022-09-09T14:48:03;7;7;
31330;PMS5003;34067;39.548;-76.088;2022-09-09T14:50:31;7;7;
31330;PMS5003;34067;39.548;-76.088;2022-09-09T14:52:59;6;6;
31330;PMS5003;34067;39.548;-76.088;2022-09-09T14:55:27;6;6;
31330;PMS5003;34067;39.548;-76.088;2022-09-09T14:57:55;6;6;
31330;PMS5003;34067;39.548;-76.088;2022-09-09T15:00:23;6;6;
31330;PMS5003;34067;39.548;-76.088;2022-09-09T15:02:51;8;8;
31330;PMS5003;34067;39.548;-76.088;2022-09-09T15:05:20;6;6;
31330;PMS5003;34067;39.548;-76.088;2022-09-09T15:07:49;4;4;
31330;PMS5003;34067;39.548;-76.088;2022-09-09T15:10:17;7;7;
31330;PMS5003;34067;39.548;-76.088;2022-09-09T15:12:44;6;6;
31330;PMS5003;34067;39.548;-76.088;2022-09-09T15:15:12;7;7;
31330;PMS5003;34067;39.548;-76.088;2022-09-09T15:17:40;9;7;
31330;PMS5003;34067;39.548;-76.088;2022-09-09T15:20:08;5;5;
31330;PMS5003;34067;39.548;-76.088;2022-09-09T15:22:36;7;7;
31330;PMS5003;34067;39.548;-76.088;2022-09-09T15:25:04;6;6;
31330;PMS5003;34067;39.548;-76.088;2022-09-09T15:27:32;6;6;
31330;PMS5003;34067;39.548;-76.088;2022-09-09T15:30:00;7;7;
31330;PMS5003;34067;39.548;-76.088;2022-09-09T15:32:28;8;7;
31330;PMS5003;34067;39.548;-76.088;2022-09-09T15:34:57;6;5;
31330;PMS5003;34067;39.548;-76.088;2022-09-09T15:37:25;7;7;
31330;PMS5003;34067;39.548;-76.088;2022-09-09T15:39:53;7;7;
31330;PMS5003;34067;39.548;-76.088;2022-09-09T15:42:20;6;6;
31330;PMS5003;34067;39.548;-76.088;2022-09-09T15:44:49;6;6;
31330;PMS5003;34067;39.548;-76.088;2022-09-09T15:47:17;7;6;
31330;PMS5003;34067;39.548;-76.088;2022-09-09T15:49:44;7;7;
31330;PMS5003;34067;39.548;-76.088;2022-09-09T15:52:12;8;7;
31330;PMS5003;34067;39.548;-76.088;2022-09-09T15:54:40;8;8;
31330;PMS5003;34067;39.548;-76.088;2022-09-09T15:57:11;10;9;
31330;PMS5003;34067;39.548;-76.088;2022-09-09T15:59:40;5;5;
31330;PMS5003;34067;39.548;-76.088;2022-09-09T16:02:08;7;6;
31330;PMS5003;34067;39.548;-76.088;2022-09-09T16:04:36;7;7;
31330;PMS5003;34067;39.548;-76.088;2022-09-09T16:07:04;6;6;
31330;PMS5003;34067;39.548;-76.088;2022-09-09T16:09:33;7;7;
31330;PMS5003;34067;39.548;-76.088;2022-09-09T16:12:03;7;7;
31330;PMS5003;34067;39.548;-76.088;2022-09-09T16:14:32;6;5;
31330;PMS5003;34067;39.548;-76.088;2022-09-09T16:17:01;4;4;
31330;PMS5003;34067;39.548;-76.088;2022-09-09T16:19:30;7;6;
31330;PMS5003;34067;39.548;-76.088;2022-09-09T16:21:58;6;6;
31330;PMS5003;34067;39.548;-76.088;2022-09-09T16:24:25;6;6;
31330;PMS5003;34067;39.548;-76.088;2022-09-09T16:26:53;7;7;
31330;PMS5003;34067;39.548;-76.088;2022-09-09T16:29:22;5;5;
31330;PMS5003;34067;39.548;-76.088;2022-09-09T16:31:50;7;6;